createdAt,value
2022-12-13T00:02:01.558Z,20.25
2022-12-13T00:04:30.027Z,18.75
2022-12-13T00:06:58.463Z,21.25
2022-12-13T00:09:26.806Z,16.00
2022-12-13T00:11:55.772Z,18.50
2022-12-13T00:14:24.137Z,21.00
2022-12-13T00:16:52.596Z,18.50
2022-12-13T00:19:21.452Z,21.75
2022-12-13T00:21:49.817Z,20.25
2022-12-13T00:24:19.300Z,18.00
2022-12-13T00:26:47.694Z,19.75
2022-12-13T00:29:16.049Z,21.00
2022-12-13T00:32:01.109Z,21.25
2022-12-13T00:34:30.421Z,19.00
2022-12-13T00:37:02.009Z,25.00
2022-12-13T00:39:30.534Z,21.00
2022-12-13T00:41:59.392Z,23.50
2022-12-13T00:44:27.922Z,21.75
2022-12-13T00:46:56.325Z,20.50
2022-12-13T00:49:25.566Z,23.75
2022-12-13T00:51:53.984Z,25.75
2022-12-13T00:54:22.436Z,25.00
2022-12-13T00:56:52.489Z,22.50
2022-12-13T00:59:20.928Z,26.00
2022-12-13T01:01:49.640Z,21.50
2022-12-13T01:04:18.121Z,23.50
2022-12-13T01:06:50.759Z,24.75
2022-12-13T01:09:22.135Z,24.50
2022-12-13T01:11:51.733Z,28.00
2022-12-13T01:14:20.661Z,23.50
2022-12-13T01:16:49.028Z,21.25
2022-12-13T01:19:17.952Z,22.00
2022-12-13T01:21:46.274Z,28.00
2022-12-13T01:24:14.677Z,23.50
2022-12-13T01:26:43.162Z,23.00
2022-12-13T01:29:12.375Z,20.50
2022-12-13T01:31:42.579Z,23.25
2022-12-13T01:34:16.215Z,22.00
2022-12-13T01:36:46.334Z,23.75
2022-12-13T01:39:17.715Z,22.25
2022-12-13T01:41:48.278Z,22.75
2022-12-13T01:44:59.392Z,23.50
2022-12-13T01:47:45.354Z,22.00
2022-12-13T01:50:19.547Z,24.50
2022-12-13T01:52:49.778Z,26.00
2022-12-13T01:55:21.478Z,21.75
2022-12-13T01:57:52.034Z,21.50
2022-12-13T02:00:20.781Z,25.00
2022-12-13T02:02:50.860Z,22.50
2022-12-13T02:06:01.854Z,18.75
2022-12-13T02:08:30.934Z,23.25
2022-12-13T02:11:05.207Z,22.75
2022-12-13T02:13:33.520Z,21.00
2022-12-13T02:16:23.535Z,22.25
2022-12-13T02:19:28.998Z,24.50
2022-12-13T02:22:06.958Z,22.00
2022-12-13T02:24:35.231Z,21.50
2022-12-13T02:27:11.091Z,24.50
2022-12-13T02:29:57.989Z,23.25
2022-12-13T02:32:50.488Z,22.00
2022-12-13T02:35:23.141Z,24.25
2022-12-13T02:38:24.878Z,22.50
2022-12-13T02:41:01.767Z,20.50
2022-12-13T02:43:46.511Z,22.00
2022-12-13T02:46:22.740Z,20.25
2022-12-13T02:48:56.122Z,21.75
2022-12-13T02:51:26.404Z,20.50
2022-12-13T02:53:54.869Z,17.25
2022-12-13T02:56:23.213Z,24.75
2022-12-13T02:58:56.414Z,18.50
2022-12-13T03:02:10.366Z,21.00
2022-12-13T03:05:32.364Z,19.50
2022-12-13T03:08:22.477Z,21.25
2022-12-13T03:11:18.823Z,17.00
2022-12-13T03:14:01.572Z,21.25
2022-12-13T03:16:44.769Z,21.25
2022-12-13T03:19:14.280Z,17.00
2022-12-13T03:21:49.902Z,24.75
2022-12-13T03:24:21.261Z,17.50
2022-12-13T03:26:51.568Z,19.00
2022-12-13T03:29:23.941Z,23.75
2022-12-13T03:31:54.840Z,19.50
2022-12-13T03:34:23.547Z,20.75
2022-12-13T03:36:53.908Z,19.75
2022-12-13T03:39:23.851Z,20.75
2022-12-13T03:41:52.807Z,21.00
2022-12-13T03:44:21.156Z,20.75
2022-12-13T03:46:49.523Z,20.00
2022-12-13T03:49:17.905Z,19.25
2022-12-13T03:51:46.869Z,19.75
2022-12-13T03:54:15.354Z,22.25
2022-12-13T03:56:43.739Z,21.75
2022-12-13T03:59:12.071Z,18.75
2022-12-13T04:01:40.500Z,21.00
2022-12-13T04:04:09.071Z,19.50
2022-12-13T04:06:37.414Z,20.75
2022-12-13T04:09:07.986Z,20.00
2022-12-13T04:11:54.661Z,22.75
2022-12-13T04:14:23.189Z,22.50
2022-12-13T04:16:53.100Z,20.25
2022-12-13T04:19:23.426Z,19.00
2022-12-13T04:21:55.070Z,18.75
2022-12-13T04:24:32.138Z,20.50
2022-12-13T04:27:03.364Z,20.00
2022-12-13T04:29:34.303Z,18.00
2022-12-13T04:32:05.279Z,19.50
2022-12-13T04:34:53.615Z,18.50
2022-12-13T04:37:29.754Z,20.75
2022-12-13T04:40:00.836Z,19.25
2022-12-13T04:42:29.790Z,17.00
2022-12-13T04:44:58.144Z,16.50
2022-12-13T04:47:26.467Z,18.00
2022-12-13T04:49:56.084Z,17.50
2022-12-13T04:52:24.425Z,16.00
2022-12-13T04:54:55.712Z,21.00
2022-12-13T04:57:25.512Z,18.00
2022-12-13T04:59:53.895Z,17.75
2022-12-13T05:02:23.388Z,17.75
2022-12-13T05:04:53.787Z,21.25
2022-12-13T05:07:23.784Z,20.25
2022-12-13T05:09:52.139Z,20.50
2022-12-13T05:12:22.481Z,18.50
2022-12-13T05:14:53.071Z,20.25
2022-12-13T05:17:22.327Z,15.00
2022-12-13T05:19:50.632Z,19.00
2022-12-13T05:22:20.808Z,18.50
2022-12-13T05:24:49.822Z,19.75
2022-12-13T05:27:25.069Z,20.75
2022-12-13T05:30:03.558Z,18.75
2022-12-13T05:32:44.288Z,19.75
2022-12-13T05:35:21.760Z,18.75
2022-12-13T05:37:55.306Z,17.75
2022-12-13T05:40:25.368Z,18.75
2022-12-13T05:43:01.658Z,19.75
2022-12-13T05:45:32.721Z,19.75
2022-12-13T05:48:01.476Z,21.50
2022-12-13T05:50:30.231Z,20.00
2022-12-13T05:52:58.704Z,19.25
2022-12-13T05:55:27.197Z,18.75
2022-12-13T05:57:55.511Z,19.50
2022-12-13T06:00:31.182Z,19.00
2022-12-13T06:03:01.594Z,19.50
2022-12-13T06:05:31.967Z,18.25
2022-12-13T06:08:00.503Z,15.00
2022-12-13T06:10:35.166Z,17.25
2022-12-13T06:13:21.615Z,18.00
2022-12-13T06:16:01.690Z,17.00
2022-12-13T06:18:33.165Z,17.00
2022-12-13T06:21:04.822Z,18.00
2022-12-13T06:23:34.911Z,18.50
2022-12-13T06:26:07.537Z,19.00
2022-12-13T06:28:36.258Z,16.75
2022-12-13T06:31:05.983Z,18.75
2022-12-13T06:33:39.883Z,23.50
2022-12-13T06:36:08.706Z,20.25
2022-12-13T06:38:43.306Z,18.25
2022-12-13T06:41:15.061Z,16.75
2022-12-13T06:43:45.031Z,15.50
2022-12-13T06:46:14.038Z,19.00
2022-12-13T06:48:42.839Z,19.00
2022-12-13T06:51:11.693Z,20.50
2022-12-13T06:53:41.615Z,18.75
2022-12-13T06:56:12.477Z,14.75
2022-12-13T06:58:42.133Z,17.50
2022-12-13T07:01:23.809Z,17.75
2022-12-13T07:03:55.809Z,21.25
2022-12-13T07:06:25.695Z,19.50
2022-12-13T07:08:56.645Z,15.75
2022-12-13T07:11:34.246Z,19.00
2022-12-13T07:14:02.940Z,16.50
2022-12-13T07:16:31.293Z,18.50
2022-12-13T07:19:01.703Z,15.75
2022-12-13T07:21:31.380Z,16.50
2022-12-13T07:24:00.434Z,16.00
2022-12-13T07:26:28.899Z,17.50
2022-12-13T07:28:57.670Z,19.00
2022-12-13T07:31:26.930Z,18.75
2022-12-13T07:33:55.330Z,15.75
2022-12-13T07:36:25.073Z,18.75
2022-12-13T07:38:55.902Z,14.00
2022-12-13T07:41:28.430Z,17.25
2022-12-13T07:43:57.602Z,16.50
2022-12-13T07:46:32.028Z,18.25
2022-12-13T07:49:01.674Z,16.25
2022-12-13T07:51:30.432Z,14.25
2022-12-13T07:53:59.042Z,18.75
2022-12-13T07:56:27.356Z,15.25
2022-12-13T07:58:55.752Z,12.00
2022-12-13T08:01:24.169Z,16.25
2022-12-13T08:03:52.549Z,16.25
2022-12-13T08:06:20.976Z,16.75
2022-12-13T08:08:52.047Z,14.75
2022-12-13T08:11:20.389Z,15.25
2022-12-13T08:13:48.712Z,15.25
2022-12-13T08:16:26.654Z,14.00
2022-12-13T08:19:02.078Z,15.00
2022-12-13T08:21:55.355Z,13.50
2022-12-13T08:24:31.213Z,12.75
2022-12-13T08:27:04.440Z,17.25
2022-12-13T08:29:36.163Z,13.50
2022-12-13T08:32:07.612Z,15.25
2022-12-13T08:34:36.005Z,15.50
2022-12-13T08:37:05.002Z,15.00
2022-12-13T08:39:38.349Z,15.75
2022-12-13T08:42:18.190Z,17.00
2022-12-13T08:44:49.019Z,16.50
2022-12-13T08:47:23.082Z,16.00
2022-12-13T08:50:01.401Z,15.75
2022-12-13T08:52:31.348Z,16.00
2022-12-13T08:54:59.768Z,17.50
2022-12-13T08:57:28.080Z,14.00
2022-12-13T08:59:56.705Z,15.50
2022-12-13T09:02:25.134Z,14.00
2022-12-13T09:04:53.500Z,15.25
2022-12-13T09:07:21.809Z,17.25
2022-12-13T09:09:55.131Z,18.25
2022-12-13T09:12:30.431Z,21.50
2022-12-13T09:15:01.224Z,18.50
2022-12-13T09:17:37.244Z,15.00
2022-12-13T09:20:28.791Z,14.75
2022-12-13T09:23:01.255Z,23.50
2022-12-13T09:25:36.623Z,20.25
2022-12-13T09:28:09.474Z,19.50
2022-12-13T09:30:39.290Z,20.25
2022-12-13T09:33:28.763Z,16.75
2022-12-13T09:35:56.039Z,21.00
2022-12-13T09:38:24.402Z,16.00
2022-12-13T09:40:59.179Z,18.25
2022-12-13T09:43:42.567Z,16.00
2022-12-13T09:46:34.532Z,16.00
2022-12-13T09:49:23.714Z,17.00
2022-12-13T09:52:10.858Z,16.75
2022-12-13T09:54:48.347Z,16.50
2022-12-13T09:57:32.242Z,19.50
2022-12-13T10:00:12.112Z,18.25
2022-12-13T10:02:45.266Z,20.75
2022-12-13T10:05:22.269Z,15.00
2022-12-13T10:07:56.318Z,20.75
2022-12-13T10:10:25.189Z,20.00
2022-12-13T10:13:26.026Z,18.50
2022-12-13T10:16:05.632Z,22.00
2022-12-13T10:18:42.842Z,23.00
2022-12-13T10:21:42.387Z,26.00
2022-12-13T10:24:34.595Z,23.75
2022-12-13T10:27:18.110Z,23.00
2022-12-13T10:30:07.407Z,20.25
2022-12-13T10:32:56.007Z,18.25
2022-12-13T10:35:35.576Z,21.00
2022-12-13T10:38:31.572Z,23.00
2022-12-13T10:41:00.879Z,18.25
2022-12-13T10:43:31.302Z,17.50
2022-12-13T10:45:59.616Z,19.75
2022-12-13T10:48:51.771Z,20.50
2022-12-13T10:51:23.145Z,22.75
2022-12-13T10:53:58.628Z,20.00
2022-12-13T10:56:44.534Z,17.75
2022-12-13T10:59:38.355Z,20.75
2022-12-13T11:02:33.014Z,18.25
2022-12-13T11:05:23.430Z,19.25
2022-12-13T11:07:52.561Z,22.25
2022-12-13T11:10:31.180Z,18.50
2022-12-13T11:13:11.584Z,24.75
2022-12-13T11:15:45.984Z,22.25
2022-12-13T11:18:25.861Z,24.25
2022-12-13T11:21:06.554Z,27.25
2022-12-13T11:23:38.618Z,29.00
2022-12-13T11:26:12.350Z,31.25
2022-12-13T11:29:10.976Z,30.50
2022-12-13T11:32:01.200Z,30.75
2022-12-13T11:34:38.859Z,31.50
2022-12-13T11:37:13.091Z,30.50
2022-12-13T11:40:21.413Z,30.25
2022-12-13T11:43:00.186Z,28.00
2022-12-13T11:45:35.111Z,28.75
2022-12-13T11:48:06.105Z,26.50
2022-12-13T11:50:51.210Z,22.50
2022-12-13T11:53:56.156Z,26.25
2022-12-13T11:56:28.643Z,25.25
2022-12-13T11:59:30.663Z,27.75
2022-12-13T12:02:35.704Z,30.75
2022-12-13T12:05:09.630Z,24.50
2022-12-13T12:08:20.936Z,24.75
2022-12-13T12:10:49.760Z,25.50
2022-12-13T12:13:30.935Z,24.75
2022-12-13T12:16:21.566Z,24.25
2022-12-13T12:18:52.705Z,27.75
2022-12-13T12:22:13.388Z,21.50
2022-12-13T12:25:09.815Z,21.25
2022-12-13T12:27:47.094Z,29.00
2022-12-13T12:30:25.494Z,25.75
2022-12-13T12:33:28.559Z,27.75
2022-12-13T12:36:21.531Z,28.00
2022-12-13T12:38:49.806Z,29.00
2022-12-13T12:41:30.014Z,26.00
2022-12-13T12:44:41.035Z,26.50
2022-12-13T12:50:43.226Z,25.75
2022-12-13T12:53:23.887Z,27.50
2022-12-13T12:56:10.511Z,29.75
2022-12-13T12:59:08.381Z,26.75
2022-12-13T13:01:44.031Z,31.00
2022-12-13T13:04:22.757Z,30.50
2022-12-13T13:07:39.774Z,32.00
2022-12-13T13:10:16.370Z,28.75
2022-12-13T13:13:32.897Z,31.25
2022-12-13T13:15:54.717Z,34.00
2022-12-13T13:18:45.521Z,30.00
2022-12-13T13:21:27.496Z,32.25
2022-12-13T13:24:13.374Z,34.50
2022-12-13T13:26:45.363Z,33.00
2022-12-13T13:29:35.716Z,31.00
2022-12-13T13:32:28.547Z,33.25
2022-12-13T13:35:33.512Z,32.25
2022-12-13T13:38:22.823Z,31.00
2022-12-13T13:40:51.877Z,30.75
2022-12-13T13:43:32.853Z,33.00
2022-12-13T13:46:12.758Z,29.25
2022-12-13T13:49:16.612Z,33.50
2022-12-13T13:52:24.512Z,32.75
2022-12-13T13:55:04.627Z,31.25
2022-12-13T13:58:11.707Z,30.75
2022-12-13T14:01:21.311Z,30.75
2022-12-13T14:04:04.975Z,31.25
2022-12-13T14:07:00.997Z,31.50
2022-12-13T14:09:29.697Z,30.50
2022-12-13T14:12:22.033Z,29.00
2022-12-13T14:15:30.548Z,27.75
2022-12-13T14:18:45.663Z,30.00
2022-12-13T14:21:21.932Z,31.00
2022-12-13T14:24:02.240Z,30.00
2022-12-13T14:26:42.292Z,30.50
2022-12-13T14:29:22.276Z,31.00
2022-12-13T14:31:51.750Z,31.00
2022-12-13T14:34:31.977Z,30.75
2022-12-13T14:37:04.220Z,30.75
2022-12-13T14:39:35.632Z,29.75
2022-12-13T14:42:24.115Z,29.00
2022-12-13T14:44:53.911Z,29.50
2022-12-13T14:47:23.020Z,29.50
2022-12-13T14:49:59.063Z,32.00
2022-12-13T14:52:34.433Z,30.75
2022-12-13T14:55:10.381Z,32.50
2022-12-13T14:57:39.409Z,31.00
2022-12-13T15:00:33.845Z,31.00
2022-12-13T15:03:05.015Z,32.50
2022-12-13T15:05:48.764Z,34.00
2022-12-13T15:08:22.019Z,30.25
2022-12-13T15:10:55.030Z,31.75
2022-12-13T15:13:30.969Z,33.75
2022-12-13T15:16:10.872Z,31.75
2022-12-13T15:18:39.748Z,31.50
2022-12-13T15:21:24.691Z,30.50
2022-12-13T15:23:54.442Z,31.50
2022-12-13T15:26:29.916Z,32.00
2022-12-13T15:29:09.599Z,31.25
2022-12-13T15:31:42.661Z,31.00
2022-12-13T15:34:31.009Z,33.50
2022-12-13T15:37:29.151Z,31.00
2022-12-13T15:40:06.965Z,31.50
2022-12-13T15:42:38.289Z,32.50
2022-12-13T15:45:20.023Z,31.00
2022-12-13T15:47:50.049Z,32.00
2022-12-13T15:50:31.852Z,31.50
2022-12-13T15:53:04.205Z,32.25
2022-12-13T15:55:37.899Z,32.00
2022-12-13T15:58:33.337Z,34.00
2022-12-13T16:01:07.252Z,30.00
2022-12-13T16:03:44.670Z,31.00
2022-12-13T16:06:19.735Z,32.00
2022-12-13T16:08:52.969Z,31.25
2022-12-13T16:11:51.046Z,29.25
2022-12-13T16:14:35.091Z,29.25
2022-12-13T16:17:11.059Z,28.00
2022-12-13T16:19:39.496Z,27.50
2022-12-13T16:22:09.241Z,29.75
2022-12-13T16:24:38.093Z,28.00
2022-12-13T16:27:08.372Z,29.25
2022-12-13T16:29:37.951Z,25.50
2022-12-13T16:32:08.650Z,24.25
2022-12-13T16:34:38.961Z,26.50
2022-12-13T16:37:26.137Z,27.00
2022-12-13T16:39:55.844Z,25.25
2022-12-13T16:42:26.928Z,28.50
2022-12-13T16:45:32.342Z,28.25
2022-12-13T16:47:49.740Z,27.00
2022-12-13T16:50:20.715Z,28.00
2022-12-13T16:52:50.204Z,24.00
2022-12-13T16:55:18.769Z,26.50
2022-12-13T16:58:00.787Z,23.00
2022-12-13T17:00:31.471Z,25.75
2022-12-13T17:03:01.042Z,23.00
2022-12-13T17:05:30.685Z,25.00
2022-12-13T17:07:59.068Z,24.50
2022-12-13T17:10:28.153Z,23.75
2022-12-13T17:12:56.620Z,25.75
2022-12-13T17:15:25.280Z,23.50
2022-12-13T17:17:53.714Z,24.00
2022-12-13T17:20:22.123Z,22.75
2022-12-13T17:22:50.593Z,23.50
2022-12-13T17:25:19.367Z,22.00
2022-12-13T17:27:48.072Z,23.25
2022-12-13T17:30:18.682Z,21.75
2022-12-13T17:32:47.478Z,24.50
2022-12-13T17:35:18.362Z,24.00
2022-12-13T17:37:47.192Z,24.50
2022-12-13T17:40:15.589Z,28.50
2022-12-13T17:42:43.940Z,22.25
2022-12-13T17:45:12.955Z,19.75
2022-12-13T17:47:41.345Z,22.75
2022-12-13T17:50:10.072Z,21.00
2022-12-13T17:52:40.006Z,20.75
2022-12-13T17:55:13.544Z,25.75
2022-12-13T17:57:46.168Z,21.75
2022-12-13T18:00:15.219Z,23.50
2022-12-13T18:02:47.607Z,21.00
2022-12-13T18:05:27.041Z,21.00
2022-12-13T18:07:55.446Z,24.00
2022-12-13T18:10:29.442Z,20.25
2022-12-13T18:12:58.542Z,23.00
2022-12-13T18:15:27.037Z,20.50
2022-12-13T18:18:11.204Z,21.00
2022-12-13T18:20:40.409Z,20.50
2022-12-13T18:23:08.791Z,20.25
2022-12-13T18:25:37.580Z,24.50
2022-12-13T18:28:06.356Z,20.25
2022-12-13T18:30:34.712Z,20.00
2022-12-13T18:33:03.133Z,19.25
2022-12-13T18:35:31.461Z,20.25
2022-12-13T18:37:59.792Z,22.50
2022-12-13T18:40:28.175Z,20.50
2022-12-13T18:42:56.506Z,20.00
2022-12-13T18:45:24.842Z,23.75
2022-12-13T18:47:53.283Z,21.00
2022-12-13T18:50:21.600Z,19.75
2022-12-13T18:52:49.964Z,24.50
2022-12-13T18:55:18.479Z,19.00
2022-12-13T18:57:46.803Z,22.00
2022-12-13T19:00:16.177Z,20.00
2022-12-13T19:02:44.579Z,23.00
2022-12-13T19:05:13.054Z,20.50
2022-12-13T19:07:41.380Z,23.00
2022-12-13T19:10:10.313Z,23.50
2022-12-13T19:12:38.715Z,21.50
2022-12-13T19:15:07.399Z,20.25
2022-12-13T19:17:35.823Z,22.75
2022-12-13T19:20:04.292Z,23.25
2022-12-13T19:22:32.871Z,22.25
2022-12-13T19:25:01.256Z,21.75
2022-12-13T19:27:29.558Z,20.00
2022-12-13T19:29:58.212Z,23.75
2022-12-13T19:32:26.548Z,19.00
2022-12-13T19:34:55.171Z,18.25
2022-12-13T19:37:23.543Z,21.00
2022-12-13T19:39:51.859Z,21.00
2022-12-13T19:42:20.213Z,23.75
2022-12-13T19:44:48.727Z,21.75
2022-12-13T19:47:17.409Z,22.75
2022-12-13T19:49:45.745Z,25.00
2022-12-13T19:52:16.648Z,22.00
2022-12-13T19:54:44.960Z,21.50
2022-12-13T19:57:13.346Z,21.25
2022-12-13T19:59:41.687Z,21.00
2022-12-13T20:02:13.765Z,21.00
2022-12-13T20:04:44.159Z,23.00
2022-12-13T20:07:13.146Z,20.50
2022-12-13T20:09:42.381Z,20.75
2022-12-13T20:12:10.725Z,19.00
2022-12-13T20:14:39.028Z,22.50
2022-12-13T20:17:07.393Z,22.50
2022-12-13T20:19:35.719Z,25.75
2022-12-13T20:22:04.246Z,23.50
2022-12-13T20:24:32.607Z,17.25
2022-12-13T20:27:00.963Z,19.75
2022-12-13T20:29:29.283Z,22.50
2022-12-13T20:31:58.079Z,22.00
2022-12-13T20:34:26.789Z,23.75
2022-12-13T20:36:55.165Z,20.75
2022-12-13T20:39:23.827Z,25.00
2022-12-13T20:41:52.173Z,21.75
2022-12-13T20:44:21.251Z,22.25
2022-12-13T20:46:49.783Z,21.75
2022-12-13T20:49:18.274Z,25.25
2022-12-13T20:51:46.605Z,20.50
2022-12-13T20:54:15.121Z,24.00
2022-12-13T20:56:43.545Z,24.25
2022-12-13T20:59:14.399Z,19.50
2022-12-13T21:01:45.249Z,21.25
2022-12-13T21:04:17.830Z,23.75
2022-12-13T21:06:46.157Z,22.75
2022-12-13T21:09:14.548Z,20.50
2022-12-13T21:11:48.102Z,23.00
2022-12-13T21:14:22.951Z,23.75
2022-12-13T21:16:54.883Z,21.50
2022-12-13T21:19:37.572Z,24.50
2022-12-13T21:22:08.422Z,18.75
2022-12-13T21:24:36.746Z,25.25
2022-12-13T21:27:05.511Z,24.50
2022-12-13T21:29:33.804Z,26.75
2022-12-13T21:32:02.184Z,24.75
2022-12-13T21:34:31.031Z,27.75
2022-12-13T21:36:59.347Z,22.75
2022-12-13T21:39:31.858Z,24.75
2022-12-13T21:42:00.271Z,23.25
2022-12-13T21:44:29.363Z,24.00
2022-12-13T21:47:13.534Z,24.25
2022-12-13T21:49:42.426Z,19.00
2022-12-13T21:52:18.929Z,24.25
2022-12-13T21:54:47.388Z,25.00
2022-12-13T21:57:33.931Z,25.00
2022-12-13T22:00:02.276Z,30.00
2022-12-13T22:02:30.716Z,26.75
2022-12-13T22:05:00.053Z,27.75
2022-12-13T22:07:31.015Z,26.75
2022-12-13T22:10:00.969Z,25.00
2022-12-13T22:12:38.052Z,26.25
2022-12-13T22:15:10.809Z,27.25
2022-12-13T22:17:40.235Z,24.00
2022-12-13T22:20:12.403Z,27.75
2022-12-13T22:22:42.521Z,25.50
2022-12-13T22:25:11.712Z,25.75
2022-12-13T22:27:40.075Z,23.75
2022-12-13T22:30:09.200Z,22.00
2022-12-13T22:32:37.534Z,20.00
2022-12-13T22:35:06.080Z,27.00
2022-12-13T22:37:34.520Z,23.50
2022-12-13T22:40:02.856Z,25.00
2022-12-13T22:42:31.258Z,22.00
2022-12-13T22:44:59.694Z,22.75
2022-12-13T22:47:28.357Z,27.25
2022-12-13T22:49:57.701Z,24.00
2022-12-13T22:52:31.911Z,25.25
2022-12-13T22:55:01.993Z,26.25
2022-12-13T22:57:30.527Z,26.75
2022-12-13T22:59:58.814Z,28.25
2022-12-13T23:02:27.179Z,30.50
2022-12-13T23:04:55.591Z,28.75
2022-12-13T23:07:24.013Z,27.75
2022-12-13T23:09:52.397Z,29.25
2022-12-13T23:12:38.795Z,29.50
2022-12-13T23:15:08.002Z,30.50
2022-12-13T23:17:36.467Z,29.25
2022-12-13T23:20:05.390Z,29.25
2022-12-13T23:22:33.756Z,28.00
2022-12-13T23:25:02.085Z,31.25
2022-12-13T23:27:30.385Z,30.50
2022-12-13T23:29:58.709Z,30.50
2022-12-13T23:32:27.222Z,31.50
2022-12-13T23:34:55.556Z,29.50
2022-12-13T23:37:24.890Z,30.00
2022-12-13T23:39:53.213Z,29.75
2022-12-13T23:42:21.508Z,30.00
2022-12-13T23:44:49.811Z,33.75
2022-12-13T23:47:18.147Z,31.50
2022-12-13T23:49:46.430Z,31.25
2022-12-13T23:52:16.712Z,32.00
2022-12-13T23:54:45.216Z,33.75
2022-12-13T23:57:13.532Z,34.75
2022-12-13T23:59:42.145Z,33.00
